sensor_id;sensor_type;location;lat;lon;timestamp;temperature;humidity
31799;DHT22;18374;51.136;3.502;2023-07-16T00:02:06;17.00;99.90
31799;DHT22;18374;51.136;3.502;2023-07-16T00:04:34;17.10;99.90
31799;DHT22;18374;51.136;3.502;2023-07-16T00:07:02;17.10;99.90
31799;DHT22;18374;51.136;3.502;2023-07-16T00:09:29;17.00;99.90
31799;DHT22;18374;51.136;3.502;2023-07-16T00:11:57;17.00;99.90
31799;DHT22;18374;51.136;3.502;2023-07-16T00:14:24;17.00;99.90
31799;DHT22;18374;51.136;3.502;2023-07-16T00:16:52;17.00;99.90
31799;DHT22;18374;51.136;3.502;2023-07-16T00:19:19;17.00;99.90
31799;DHT22;18374;51.136;3.502;2023-07-16T00:21:47;17.00;99.90
31799;DHT22;18374;51.136;3.502;2023-07-16T00:24:14;17.00;99.90
31799;DHT22;18374;51.136;3.502;2023-07-16T00:26:42;17.00;99.90
31799;DHT22;18374;51.136;3.502;2023-07-16T00:29:10;17.00;99.90
31799;DHT22;18374;51.136;3.502;2023-07-16T00:31:38;17.00;99.90
31799;DHT22;18374;51.136;3.502;2023-07-16T00:34:05;16.90;99.90
31799;DHT22;18374;51.136;3.502;2023-07-16T00:36:32;16.90;99.90
31799;DHT22;18374;51.136;3.502;2023-07-16T00:39:00;16.90;99.90
31799;DHT22;18374;51.136;3.502;2023-07-16T00:41:28;16.90;99.90
31799;DHT22;18374;51.136;3.502;2023-07-16T00:43:56;17.00;99.90
31799;DHT22;18374;51.136;3.502;2023-07-16T00:46:24;17.00;99.90
31799;DHT22;18374;51.136;3.502;2023-07-16T00:48:52;17.10;99.90
31799;DHT22;18374;51.136;3.502;2023-07-16T00:51:19;17.10;99.90
31799;DHT22;18374;51.136;3.502;2023-07-16T00:53:49;17.10;99.90
31799;DHT22;18374;51.136;3.502;2023-07-16T00:56:17;17.10;99.90
31799;DHT22;18374;51.136;3.502;2023-07-16T00:58:45;17.10;99.90
31799;DHT22;18374;51.136;3.502;2023-07-16T01:01:13;17.10;99.90
31799;DHT22;18374;51.136;3.502;2023-07-16T01:03:40;17.10;99.90
31799;DHT22;18374;51.136;3.502;2023-07-16T01:06:22;17.00;99.90
31799;DHT22;18374;51.136;3.502;2023-07-16T01:11:46;16.90;99.90
31799;DHT22;18374;51.136;3.502;2023-07-16T01:14:18;16.90;99.90
31799;DHT22;18374;51.136;3.502;2023-07-16T01:16:45;16.90;99.90
31799;DHT22;18374;51.136;3.502;2023-07-16T01:19:13;16.90;99.90
31799;DHT22;18374;51.136;3.502;2023-07-16T01:30:26;16.80;99.90
31799;DHT22;18374;51.136;3.502;2023-07-16T01:32:55;16.80;99.90
31799;DHT22;18374;51.136;3.502;2023-07-16T01:35:24;16.90;99.90
31799;DHT22;18374;51.136;3.502;2023-07-16T01:37:52;16.90;99.90
31799;DHT22;18374;51.136;3.502;2023-07-16T01:40:20;16.90;99.90
31799;DHT22;18374;51.136;3.502;2023-07-16T01:42:47;16.90;99.90
31799;DHT22;18374;51.136;3.502;2023-07-16T01:45:15;16.90;99.90
31799;DHT22;18374;51.136;3.502;2023-07-16T01:50:33;17.00;99.90
31799;DHT22;18374;51.136;3.502;2023-07-16T01:53:01;17.00;99.90
31799;DHT22;18374;51.136;3.502;2023-07-16T01:55:29;17.00;99.90
31799;DHT22;18374;51.136;3.502;2023-07-16T01:57:56;17.00;99.90
31799;DHT22;18374;51.136;3.502;2023-07-16T02:00:24;17.00;99.90
31799;DHT22;18374;51.136;3.502;2023-07-16T02:02:52;17.00;99.90
31799;DHT22;18374;51.136;3.502;2023-07-16T02:05:23;17.00;99.90
31799;DHT22;18374;51.136;3.502;2023-07-16T02:07:50;17.00;99.90
31799;DHT22;18374;51.136;3.502;2023-07-16T02:10:18;17.00;99.90
31799;DHT22;18374;51.136;3.502;2023-07-16T02:12:47;17.10;99.90
31799;DHT22;18374;51.136;3.502;2023-07-16T02:15:14;17.10;99.90
31799;DHT22;18374;51.136;3.502;2023-07-16T02:17:43;17.10;99.90
31799;DHT22;18374;51.136;3.502;2023-07-16T02:20:11;17.10;99.90
31799;DHT22;18374;51.136;3.502;2023-07-16T02:22:38;17.20;99.90
31799;DHT22;18374;51.136;3.502;2023-07-16T02:25:06;17.20;99.90
31799;DHT22;18374;51.136;3.502;2023-07-16T02:27:34;17.20;99.90
31799;DHT22;18374;51.136;3.502;2023-07-16T02:30:03;17.20;99.90
31799;DHT22;18374;51.136;3.502;2023-07-16T02:32:33;17.20;99.90
31799;DHT22;18374;51.136;3.502;2023-07-16T02:35:01;17.10;99.90
31799;DHT22;18374;51.136;3.502;2023-07-16T02:37:30;17.00;99.90
31799;DHT22;18374;51.136;3.502;2023-07-16T02:39:58;17.00;99.90
31799;DHT22;18374;51.136;3.502;2023-07-16T02:42:26;17.00;99.90
31799;DHT22;18374;51.136;3.502;2023-07-16T02:44:53;17.00;99.90
31799;DHT22;18374;51.136;3.502;2023-07-16T02:47:21;16.90;99.90
31799;DHT22;18374;51.136;3.502;2023-07-16T02:49:50;16.80;99.90
31799;DHT22;18374;51.136;3.502;2023-07-16T02:52:19;16.80;99.90
31799;DHT22;18374;51.136;3.502;2023-07-16T02:54:46;16.80;99.90
31799;DHT22;18374;51.136;3.502;2023-07-16T02:57:14;16.80;99.90
31799;DHT22;18374;51.136;3.502;2023-07-16T02:59:42;16.80;99.90
31799;DHT22;18374;51.136;3.502;2023-07-16T03:02:09;16.90;99.90
31799;DHT22;18374;51.136;3.502;2023-07-16T03:04:37;16.80;99.90
31799;DHT22;18374;51.136;3.502;2023-07-16T03:07:05;16.80;99.90
31799;DHT22;18374;51.136;3.502;2023-07-16T03:09:32;16.90;99.90
31799;DHT22;18374;51.136;3.502;2023-07-16T03:12:00;16.90;99.90
31799;DHT22;18374;51.136;3.502;2023-07-16T03:14:27;16.90;99.90
31799;DHT22;18374;51.136;3.502;2023-07-16T03:16:56;16.90;99.90
31799;DHT22;18374;51.136;3.502;2023-07-16T03:19:23;16.90;99.90
31799;DHT22;18374;51.136;3.502;2023-07-16T03:21:51;16.90;99.90
31799;DHT22;18374;51.136;3.502;2023-07-16T03:24:18;16.80;99.90
31799;DHT22;18374;51.136;3.502;2023-07-16T03:26:46;16.90;99.90
31799;DHT22;18374;51.136;3.502;2023-07-16T03:29:14;16.90;99.90
31799;DHT22;18374;51.136;3.502;2023-07-16T03:31:43;16.90;99.90
31799;DHT22;18374;51.136;3.502;2023-07-16T03:34:12;16.80;99.90
31799;DHT22;18374;51.136;3.502;2023-07-16T03:36:41;16.80;99.90
31799;DHT22;18374;51.136;3.502;2023-07-16T03:39:08;16.80;99.90
31799;DHT22;18374;51.136;3.502;2023-07-16T03:41:36;16.80;99.90
31799;DHT22;18374;51.136;3.502;2023-07-16T03:44:04;16.80;99.90
31799;DHT22;18374;51.136;3.502;2023-07-16T03:46:34;16.80;99.90
31799;DHT22;18374;51.136;3.502;2023-07-16T03:49:02;16.80;99.90
31799;DHT22;18374;51.136;3.502;2023-07-16T03:51:29;16.90;99.90
31799;DHT22;18374;51.136;3.502;2023-07-16T03:53:57;16.90;99.90
31799;DHT22;18374;51.136;3.502;2023-07-16T03:56:24;17.00;99.90
31799;DHT22;18374;51.136;3.502;2023-07-16T03:58:52;17.00;99.90
31799;DHT22;18374;51.136;3.502;2023-07-16T04:01:20;17.00;99.90
31799;DHT22;18374;51.136;3.502;2023-07-16T04:03:47;16.90;99.90
31799;DHT22;18374;51.136;3.502;2023-07-16T04:06:15;17.00;99.90
31799;DHT22;18374;51.136;3.502;2023-07-16T04:08:43;17.00;99.90
31799;DHT22;18374;51.136;3.502;2023-07-16T04:11:10;17.00;99.90
31799;DHT22;18374;51.136;3.502;2023-07-16T04:13:38;17.00;99.90
31799;DHT22;18374;51.136;3.502;2023-07-16T04:16:05;17.00;99.90
31799;DHT22;18374;51.136;3.502;2023-07-16T04:18:33;17.00;99.90
31799;DHT22;18374;51.136;3.502;2023-07-16T04:21:00;17.10;99.90
31799;DHT22;18374;51.136;3.502;2023-07-16T04:23:28;17.00;99.90
31799;DHT22;18374;51.136;3.502;2023-07-16T04:25:55;17.00;99.90
31799;DHT22;18374;51.136;3.502;2023-07-16T04:28:23;17.00;99.90
31799;DHT22;18374;51.136;3.502;2023-07-16T04:30:50;16.90;99.90
31799;DHT22;18374;51.136;3.502;2023-07-16T04:33:18;16.90;99.90
31799;DHT22;18374;51.136;3.502;2023-07-16T04:35:46;16.80;99.90
31799;DHT22;18374;51.136;3.502;2023-07-16T04:38:14;16.90;99.90
31799;DHT22;18374;51.136;3.502;2023-07-16T04:40:42;16.90;99.90
31799;DHT22;18374;51.136;3.502;2023-07-16T04:43:10;16.90;99.90
31799;DHT22;18374;51.136;3.502;2023-07-16T04:45:38;16.90;99.90
31799;DHT22;18374;51.136;3.502;2023-07-16T04:48:07;17.00;99.90
31799;DHT22;18374;51.136;3.502;2023-07-16T04:50:34;17.00;99.90
31799;DHT22;18374;51.136;3.502;2023-07-16T04:53:02;17.00;99.90
31799;DHT22;18374;51.136;3.502;2023-07-16T04:55:34;16.90;99.90
31799;DHT22;18374;51.136;3.502;2023-07-16T04:58:06;16.90;99.90
31799;DHT22;18374;51.136;3.502;2023-07-16T05:00:34;16.90;99.90
31799;DHT22;18374;51.136;3.502;2023-07-16T05:03:01;16.80;99.90
31799;DHT22;18374;51.136;3.502;2023-07-16T05:05:29;16.80;99.90
31799;DHT22;18374;51.136;3.502;2023-07-16T05:07:56;16.90;99.90
31799;DHT22;18374;51.136;3.502;2023-07-16T05:10:24;17.00;99.90
31799;DHT22;18374;51.136;3.502;2023-07-16T05:12:52;17.00;99.90
31799;DHT22;18374;51.136;3.502;2023-07-16T05:15:19;17.00;99.90
31799;DHT22;18374;51.136;3.502;2023-07-16T05:17:46;17.10;99.90
31799;DHT22;18374;51.136;3.502;2023-07-16T05:20:14;17.20;99.90
31799;DHT22;18374;51.136;3.502;2023-07-16T05:22:42;17.10;99.90
31799;DHT22;18374;51.136;3.502;2023-07-16T05:25:09;17.00;99.90
31799;DHT22;18374;51.136;3.502;2023-07-16T05:27:37;17.00;99.90
31799;DHT22;18374;51.136;3.502;2023-07-16T05:30:05;17.10;99.90
31799;DHT22;18374;51.136;3.502;2023-07-16T05:32:33;17.20;99.90
31799;DHT22;18374;51.136;3.502;2023-07-16T05:35:00;17.30;99.90
31799;DHT22;18374;51.136;3.502;2023-07-16T05:37:29;17.30;99.90
31799;DHT22;18374;51.136;3.502;2023-07-16T05:39:57;17.20;99.90
31799;DHT22;18374;51.136;3.502;2023-07-16T05:42:24;17.20;99.90
31799;DHT22;18374;51.136;3.502;2023-07-16T05:44:52;17.20;99.90
31799;DHT22;18374;51.136;3.502;2023-07-16T05:47:20;17.30;99.90
31799;DHT22;18374;51.136;3.502;2023-07-16T05:49:47;17.30;99.90
31799;DHT22;18374;51.136;3.502;2023-07-16T05:52:15;17.40;99.90
31799;DHT22;18374;51.136;3.502;2023-07-16T05:54:43;17.40;99.90
31799;DHT22;18374;51.136;3.502;2023-07-16T05:57:12;17.50;99.90
31799;DHT22;18374;51.136;3.502;2023-07-16T05:59:39;17.70;99.90
31799;DHT22;18374;51.136;3.502;2023-07-16T06:02:07;17.60;99.90
31799;DHT22;18374;51.136;3.502;2023-07-16T06:04:34;17.60;99.90
31799;DHT22;18374;51.136;3.502;2023-07-16T06:07:02;17.60;99.90
31799;DHT22;18374;51.136;3.502;2023-07-16T06:09:30;17.50;99.90
31799;DHT22;18374;51.136;3.502;2023-07-16T06:11:58;17.50;99.90
31799;DHT22;18374;51.136;3.502;2023-07-16T06:14:25;17.50;99.90
31799;DHT22;18374;51.136;3.502;2023-07-16T06:16:53;17.50;99.90
31799;DHT22;18374;51.136;3.502;2023-07-16T06:19:21;17.50;99.90
31799;DHT22;18374;51.136;3.502;2023-07-16T06:21:48;17.60;99.90
31799;DHT22;18374;51.136;3.502;2023-07-16T06:24:16;17.60;99.90
31799;DHT22;18374;51.136;3.502;2023-07-16T06:26:43;17.60;99.90
31799;DHT22;18374;51.136;3.502;2023-07-16T06:29:11;17.60;99.90
31799;DHT22;18374;51.136;3.502;2023-07-16T06:31:38;17.70;99.90
31799;DHT22;18374;51.136;3.502;2023-07-16T06:34:06;17.80;99.90
31799;DHT22;18374;51.136;3.502;2023-07-16T06:36:33;17.80;99.90
31799;DHT22;18374;51.136;3.502;2023-07-16T06:39:01;17.70;99.90
31799;DHT22;18374;51.136;3.502;2023-07-16T06:41:29;17.70;99.90
31799;DHT22;18374;51.136;3.502;2023-07-16T06:43:57;17.80;99.90
31799;DHT22;18374;51.136;3.502;2023-07-16T06:46:25;17.90;99.90
31799;DHT22;18374;51.136;3.502;2023-07-16T06:48:52;18.00;99.90
31799;DHT22;18374;51.136;3.502;2023-07-16T06:51:20;18.00;99.90
31799;DHT22;18374;51.136;3.502;2023-07-16T06:53:48;18.00;99.90
31799;DHT22;18374;51.136;3.502;2023-07-16T06:56:16;18.00;99.90
31799;DHT22;18374;51.136;3.502;2023-07-16T06:58:44;18.00;99.90
31799;DHT22;18374;51.136;3.502;2023-07-16T07:01:11;18.10;99.90
31799;DHT22;18374;51.136;3.502;2023-07-16T07:03:39;18.20;99.90
31799;DHT22;18374;51.136;3.502;2023-07-16T07:06:06;18.30;99.90
31799;DHT22;18374;51.136;3.502;2023-07-16T07:08:34;18.30;99.90
31799;DHT22;18374;51.136;3.502;2023-07-16T07:11:01;18.40;99.90
31799;DHT22;18374;51.136;3.502;2023-07-16T07:13:29;18.30;99.90
31799;DHT22;18374;51.136;3.502;2023-07-16T07:15:57;18.30;99.90
31799;DHT22;18374;51.136;3.502;2023-07-16T07:18:24;18.40;99.90
31799;DHT22;18374;51.136;3.502;2023-07-16T07:20:52;18.20;99.90
31799;DHT22;18374;51.136;3.502;2023-07-16T07:23:19;18.20;99.90
31799;DHT22;18374;51.136;3.502;2023-07-16T07:25:50;18.20;99.90
31799;DHT22;18374;51.136;3.502;2023-07-16T07:28:18;18.30;99.90
31799;DHT22;18374;51.136;3.502;2023-07-16T07:30:46;18.30;99.90
31799;DHT22;18374;51.136;3.502;2023-07-16T07:33:14;18.30;99.90
31799;DHT22;18374;51.136;3.502;2023-07-16T07:35:42;18.40;99.90
31799;DHT22;18374;51.136;3.502;2023-07-16T07:38:09;18.40;99.90
31799;DHT22;18374;51.136;3.502;2023-07-16T07:40:36;18.40;99.90
31799;DHT22;18374;51.136;3.502;2023-07-16T07:43:04;18.40;99.90
31799;DHT22;18374;51.136;3.502;2023-07-16T07:45:32;18.50;99.90
31799;DHT22;18374;51.136;3.502;2023-07-16T07:47:59;18.60;99.90
31799;DHT22;18374;51.136;3.502;2023-07-16T07:50:27;18.60;99.90
31799;DHT22;18374;51.136;3.502;2023-07-16T07:52:56;18.70;99.90
31799;DHT22;18374;51.136;3.502;2023-07-16T07:55:24;18.70;99.90
31799;DHT22;18374;51.136;3.502;2023-07-16T07:57:52;18.90;99.90
31799;DHT22;18374;51.136;3.502;2023-07-16T08:00:19;18.90;99.90
31799;DHT22;18374;51.136;3.502;2023-07-16T08:02:47;19.00;99.90
31799;DHT22;18374;51.136;3.502;2023-07-16T08:05:15;19.00;99.90
31799;DHT22;18374;51.136;3.502;2023-07-16T08:07:42;18.90;99.90
31799;DHT22;18374;51.136;3.502;2023-07-16T08:10:10;18.90;99.90
31799;DHT22;18374;51.136;3.502;2023-07-16T08:12:38;18.90;99.90
31799;DHT22;18374;51.136;3.502;2023-07-16T08:15:05;18.90;99.90
31799;DHT22;18374;51.136;3.502;2023-07-16T08:17:35;18.80;99.90
31799;DHT22;18374;51.136;3.502;2023-07-16T08:20:03;18.70;99.90
31799;DHT22;18374;51.136;3.502;2023-07-16T08:22:31;18.60;99.90
31799;DHT22;18374;51.136;3.502;2023-07-16T08:24:58;18.50;99.90
31799;DHT22;18374;51.136;3.502;2023-07-16T08:27:26;18.40;99.90
31799;DHT22;18374;51.136;3.502;2023-07-16T08:29:53;18.20;99.90
31799;DHT22;18374;51.136;3.502;2023-07-16T08:32:21;18.20;99.90
31799;DHT22;18374;51.136;3.502;2023-07-16T08:34:49;18.10;99.90
31799;DHT22;18374;51.136;3.502;2023-07-16T08:37:17;18.00;99.90
31799;DHT22;18374;51.136;3.502;2023-07-16T08:39:44;18.00;99.90
31799;DHT22;18374;51.136;3.502;2023-07-16T08:42:12;18.00;99.90
31799;DHT22;18374;51.136;3.502;2023-07-16T08:44:40;18.10;99.90
31799;DHT22;18374;51.136;3.502;2023-07-16T08:47:07;18.10;99.90
31799;DHT22;18374;51.136;3.502;2023-07-16T08:49:35;18.10;99.90
31799;DHT22;18374;51.136;3.502;2023-07-16T08:52:04;18.20;99.90
31799;DHT22;18374;51.136;3.502;2023-07-16T08:54:32;18.20;99.90
31799;DHT22;18374;51.136;3.502;2023-07-16T08:57:00;18.00;99.90
31799;DHT22;18374;51.136;3.502;2023-07-16T08:59:27;17.90;99.90
31799;DHT22;18374;51.136;3.502;2023-07-16T09:01:55;17.80;99.90
31799;DHT22;18374;51.136;3.502;2023-07-16T09:04:22;17.70;99.90
31799;DHT22;18374;51.136;3.502;2023-07-16T09:06:50;17.70;99.90
31799;DHT22;18374;51.136;3.502;2023-07-16T09:09:35;17.70;99.90
31799;DHT22;18374;51.136;3.502;2023-07-16T09:12:02;17.60;99.90
31799;DHT22;18374;51.136;3.502;2023-07-16T09:14:30;17.60;99.90
31799;DHT22;18374;51.136;3.502;2023-07-16T09:16:57;17.60;99.90
31799;DHT22;18374;51.136;3.502;2023-07-16T09:19:25;17.70;99.90
31799;DHT22;18374;51.136;3.502;2023-07-16T09:21:53;17.80;99.90
31799;DHT22;18374;51.136;3.502;2023-07-16T09:24:20;18.00;99.90
31799;DHT22;18374;51.136;3.502;2023-07-16T09:26:49;18.30;99.90
31799;DHT22;18374;51.136;3.502;2023-07-16T09:29:17;18.70;99.90
31799;DHT22;18374;51.136;3.502;2023-07-16T09:32:01;19.20;99.90
31799;DHT22;18374;51.136;3.502;2023-07-16T09:34:35;19.20;99.90
31799;DHT22;18374;51.136;3.502;2023-07-16T09:37:03;19.20;99.90
31799;DHT22;18374;51.136;3.502;2023-07-16T09:39:32;19.20;99.90
31799;DHT22;18374;51.136;3.502;2023-07-16T09:42:00;19.10;99.90
31799;DHT22;18374;51.136;3.502;2023-07-16T09:44:29;19.10;99.90
31799;DHT22;18374;51.136;3.502;2023-07-16T09:46:57;19.10;99.90
31799;DHT22;18374;51.136;3.502;2023-07-16T09:49:28;19.10;99.90
31799;DHT22;18374;51.136;3.502;2023-07-16T09:51:56;19.20;99.90
31799;DHT22;18374;51.136;3.502;2023-07-16T09:54:25;19.20;99.90
31799;DHT22;18374;51.136;3.502;2023-07-16T09:56:57;19.30;99.90
31799;DHT22;18374;51.136;3.502;2023-07-16T09:59:27;19.40;99.90
31799;DHT22;18374;51.136;3.502;2023-07-16T10:01:56;19.50;99.90
31799;DHT22;18374;51.136;3.502;2023-07-16T10:04:25;19.50;99.90
31799;DHT22;18374;51.136;3.502;2023-07-16T10:06:54;19.60;99.90
31799;DHT22;18374;51.136;3.502;2023-07-16T10:09:42;19.80;99.90
31799;DHT22;18374;51.136;3.502;2023-07-16T10:12:19;20.10;99.90
31799;DHT22;18374;51.136;3.502;2023-07-16T10:14:48;20.50;99.90
31799;DHT22;18374;51.136;3.502;2023-07-16T10:17:21;20.80;99.90
31799;DHT22;18374;51.136;3.502;2023-07-16T10:19:50;21.20;99.90
31799;DHT22;18374;51.136;3.502;2023-07-16T10:22:18;21.50;99.90
31799;DHT22;18374;51.136;3.502;2023-07-16T10:24:52;21.70;99.90
31799;DHT22;18374;51.136;3.502;2023-07-16T10:27:27;21.80;99.90
31799;DHT22;18374;51.136;3.502;2023-07-16T10:29:58;21.80;99.90
31799;DHT22;18374;51.136;3.502;2023-07-16T10:32:30;21.70;99.90
31799;DHT22;18374;51.136;3.502;2023-07-16T10:34:58;21.60;99.90
31799;DHT22;18374;51.136;3.502;2023-07-16T10:37:26;21.70;99.90
31799;DHT22;18374;51.136;3.502;2023-07-16T10:39:56;21.80;99.90
31799;DHT22;18374;51.136;3.502;2023-07-16T10:42:25;21.90;99.90
31799;DHT22;18374;51.136;3.502;2023-07-16T10:44:54;22.00;99.90
31799;DHT22;18374;51.136;3.502;2023-07-16T10:50:00;21.70;99.90
31799;DHT22;18374;51.136;3.502;2023-07-16T10:52:28;21.50;99.90
31799;DHT22;18374;51.136;3.502;2023-07-16T10:54:55;21.50;99.90
31799;DHT22;18374;51.136;3.502;2023-07-16T10:59:57;21.70;99.90
31799;DHT22;18374;51.136;3.502;2023-07-16T11:02:25;21.80;99.90
31799;DHT22;18374;51.136;3.502;2023-07-16T11:04:53;22.00;99.90
31799;DHT22;18374;51.136;3.502;2023-07-16T11:07:21;22.00;99.90
31799;DHT22;18374;51.136;3.502;2023-07-16T11:09:50;21.80;99.90
31799;DHT22;18374;51.136;3.502;2023-07-16T11:12:19;21.80;99.90
31799;DHT22;18374;51.136;3.502;2023-07-16T11:14:49;21.70;99.90
31799;DHT22;18374;51.136;3.502;2023-07-16T11:17:18;21.60;99.90
31799;DHT22;18374;51.136;3.502;2023-07-16T11:19:47;21.50;99.90
31799;DHT22;18374;51.136;3.502;2023-07-16T11:22:15;21.50;99.90
31799;DHT22;18374;51.136;3.502;2023-07-16T11:24:43;21.60;99.90
31799;DHT22;18374;51.136;3.502;2023-07-16T11:27:16;21.90;99.90
31799;DHT22;18374;51.136;3.502;2023-07-16T11:29:45;22.10;99.90
31799;DHT22;18374;51.136;3.502;2023-07-16T11:35:04;22.00;99.20
31799;DHT22;18374;51.136;3.502;2023-07-16T11:37:33;22.20;99.10
31799;DHT22;18374;51.136;3.502;2023-07-16T11:40:09;22.20;98.40
31799;DHT22;18374;51.136;3.502;2023-07-16T11:42:38;22.20;98.80
31799;DHT22;18374;51.136;3.502;2023-07-16T11:45:16;22.10;98.70
31799;DHT22;18374;51.136;3.502;2023-07-16T11:47:45;21.90;97.90
31799;DHT22;18374;51.136;3.502;2023-07-16T11:50:13;21.90;99.10
31799;DHT22;18374;51.136;3.502;2023-07-16T11:52:40;22.00;99.40
31799;DHT22;18374;51.136;3.502;2023-07-16T11:55:08;22.00;98.90
31799;DHT22;18374;51.136;3.502;2023-07-16T11:57:36;22.30;99.50
31799;DHT22;18374;51.136;3.502;2023-07-16T12:00:04;22.40;98.60
31799;DHT22;18374;51.136;3.502;2023-07-16T12:02:32;22.40;98.00
31799;DHT22;18374;51.136;3.502;2023-07-16T12:05:01;22.40;97.70
31799;DHT22;18374;51.136;3.502;2023-07-16T12:10:01;22.60;98.00
31799;DHT22;18374;51.136;3.502;2023-07-16T12:12:30;22.80;98.40
31799;DHT22;18374;51.136;3.502;2023-07-16T12:14:59;22.80;97.60
31799;DHT22;18374;51.136;3.502;2023-07-16T12:17:27;23.00;97.90
31799;DHT22;18374;51.136;3.502;2023-07-16T12:19:55;23.00;97.60
31799;DHT22;18374;51.136;3.502;2023-07-16T12:22:22;23.30;97.80
31799;DHT22;18374;51.136;3.502;2023-07-16T12:24:50;23.60;96.10
31799;DHT22;18374;51.136;3.502;2023-07-16T12:27:18;23.70;96.00
31799;DHT22;18374;51.136;3.502;2023-07-16T12:29:46;23.80;96.30
31799;DHT22;18374;51.136;3.502;2023-07-16T12:32:13;23.80;94.90
31799;DHT22;18374;51.136;3.502;2023-07-16T12:34:41;23.80;94.80
31799;DHT22;18374;51.136;3.502;2023-07-16T12:37:09;23.60;95.20
31799;DHT22;18374;51.136;3.502;2023-07-16T12:39:37;23.30;95.20
31799;DHT22;18374;51.136;3.502;2023-07-16T12:42:05;23.10;95.50
31799;DHT22;18374;51.136;3.502;2023-07-16T12:44:33;22.80;95.90
31799;DHT22;18374;51.136;3.502;2023-07-16T12:47:01;22.60;95.10
31799;DHT22;18374;51.136;3.502;2023-07-16T12:49:28;22.10;95.40
31799;DHT22;18374;51.136;3.502;2023-07-16T12:51:56;21.70;97.10
31799;DHT22;18374;51.136;3.502;2023-07-16T12:54:23;21.80;97.70
31799;DHT22;18374;51.136;3.502;2023-07-16T12:56:51;21.90;97.40
31799;DHT22;18374;51.136;3.502;2023-07-16T12:59:18;22.00;97.10
31799;DHT22;18374;51.136;3.502;2023-07-16T13:01:46;22.00;97.20
31799;DHT22;18374;51.136;3.502;2023-07-16T13:04:13;21.90;97.30
31799;DHT22;18374;51.136;3.502;2023-07-16T13:06:41;21.90;97.50
31799;DHT22;18374;51.136;3.502;2023-07-16T13:09:09;21.90;96.60
31799;DHT22;18374;51.136;3.502;2023-07-16T13:11:36;22.10;96.60
31799;DHT22;18374;51.136;3.502;2023-07-16T13:14:04;22.40;96.30
31799;DHT22;18374;51.136;3.502;2023-07-16T13:16:32;22.60;95.90
31799;DHT22;18374;51.136;3.502;2023-07-16T13:18:59;22.80;96.00
31799;DHT22;18374;51.136;3.502;2023-07-16T13:21:27;22.90;95.20
31799;DHT22;18374;51.136;3.502;2023-07-16T13:23:54;22.90;94.30
31799;DHT22;18374;51.136;3.502;2023-07-16T13:26:22;22.80;94.80
31799;DHT22;18374;51.136;3.502;2023-07-16T13:28:49;22.80;94.80
31799;DHT22;18374;51.136;3.502;2023-07-16T13:31:17;22.70;94.50
31799;DHT22;18374;51.136;3.502;2023-07-16T13:33:45;22.80;95.80
31799;DHT22;18374;51.136;3.502;2023-07-16T13:36:12;22.80;94.10
31799;DHT22;18374;51.136;3.502;2023-07-16T13:38:40;22.70;94.30
31799;DHT22;18374;51.136;3.502;2023-07-16T13:41:08;22.60;94.20
31799;DHT22;18374;51.136;3.502;2023-07-16T13:43:35;22.70;94.40
31799;DHT22;18374;51.136;3.502;2023-07-16T13:46:03;22.90;94.00
31799;DHT22;18374;51.136;3.502;2023-07-16T13:48:30;23.00;94.20
31799;DHT22;18374;51.136;3.502;2023-07-16T13:51:14;23.30;94.40
31799;DHT22;18374;51.136;3.502;2023-07-16T13:53:42;23.60;92.40
31799;DHT22;18374;51.136;3.502;2023-07-16T13:56:09;23.90;93.70
31799;DHT22;18374;51.136;3.502;2023-07-16T13:58:37;24.10;92.50
31799;DHT22;18374;51.136;3.502;2023-07-16T14:01:05;23.70;91.20
31799;DHT22;18374;51.136;3.502;2023-07-16T14:03:32;23.60;91.80
31799;DHT22;18374;51.136;3.502;2023-07-16T14:06:00;23.90;92.50
31799;DHT22;18374;51.136;3.502;2023-07-16T14:08:27;24.10;91.30
31799;DHT22;18374;51.136;3.502;2023-07-16T14:10:55;24.20;91.00
31799;DHT22;18374;51.136;3.502;2023-07-16T14:13:22;24.00;87.40
31799;DHT22;18374;51.136;3.502;2023-07-16T14:15:50;23.70;88.00
31799;DHT22;18374;51.136;3.502;2023-07-16T14:18:17;23.50;90.80
31799;DHT22;18374;51.136;3.502;2023-07-16T14:20:45;23.70;90.80
31799;DHT22;18374;51.136;3.502;2023-07-16T14:23:13;24.00;91.10
31799;DHT22;18374;51.136;3.502;2023-07-16T14:25:41;24.00;89.50
31799;DHT22;18374;51.136;3.502;2023-07-16T14:28:08;23.80;89.40
31799;DHT22;18374;51.136;3.502;2023-07-16T14:30:36;23.70;89.60
31799;DHT22;18374;51.136;3.502;2023-07-16T14:33:03;23.60;90.20
31799;DHT22;18374;51.136;3.502;2023-07-16T14:35:33;23.50;90.60
31799;DHT22;18374;51.136;3.502;2023-07-16T14:38:04;23.40;90.60
31799;DHT22;18374;51.136;3.502;2023-07-16T14:40:31;23.30;90.70
31799;DHT22;18374;51.136;3.502;2023-07-16T14:42:59;23.30;91.50
31799;DHT22;18374;51.136;3.502;2023-07-16T14:45:27;23.20;90.90
31799;DHT22;18374;51.136;3.502;2023-07-16T14:47:55;23.20;90.90
31799;DHT22;18374;51.136;3.502;2023-07-16T14:50:22;23.10;91.40
31799;DHT22;18374;51.136;3.502;2023-07-16T14:52:50;23.00;91.80
31799;DHT22;18374;51.136;3.502;2023-07-16T14:55:18;23.00;91.30
31799;DHT22;18374;51.136;3.502;2023-07-16T14:57:45;23.10;92.10
31799;DHT22;18374;51.136;3.502;2023-07-16T15:00:13;23.30;91.30
31799;DHT22;18374;51.136;3.502;2023-07-16T15:02:41;23.50;90.80
31799;DHT22;18374;51.136;3.502;2023-07-16T15:05:12;23.50;90.80
31799;DHT22;18374;51.136;3.502;2023-07-16T15:07:39;23.40;90.60
31799;DHT22;18374;51.136;3.502;2023-07-16T15:10:08;23.30;91.00
31799;DHT22;18374;51.136;3.502;2023-07-16T15:12:36;23.20;91.30
31799;DHT22;18374;51.136;3.502;2023-07-16T15:15:04;23.00;90.70
31799;DHT22;18374;51.136;3.502;2023-07-16T15:17:32;22.90;91.60
31799;DHT22;18374;51.136;3.502;2023-07-16T15:20:00;22.80;91.50
31799;DHT22;18374;51.136;3.502;2023-07-16T15:22:27;22.70;91.80
31799;DHT22;18374;51.136;3.502;2023-07-16T15:24:55;22.60;91.60
31799;DHT22;18374;51.136;3.502;2023-07-16T15:27:24;22.60;92.20
31799;DHT22;18374;51.136;3.502;2023-07-16T15:29:51;22.70;91.80
31799;DHT22;18374;51.136;3.502;2023-07-16T15:32:19;22.70;92.10
31799;DHT22;18374;51.136;3.502;2023-07-16T15:34:46;22.80;91.50
31799;DHT22;18374;51.136;3.502;2023-07-16T15:37:14;22.90;92.60
31799;DHT22;18374;51.136;3.502;2023-07-16T15:39:41;22.70;91.80
31799;DHT22;18374;51.136;3.502;2023-07-16T15:42:09;22.60;92.40
31799;DHT22;18374;51.136;3.502;2023-07-16T15:44:36;22.40;92.20
31799;DHT22;18374;51.136;3.502;2023-07-16T15:47:04;22.30;93.50
31799;DHT22;18374;51.136;3.502;2023-07-16T15:49:32;22.30;94.40
31799;DHT22;18374;51.136;3.502;2023-07-16T15:51:59;22.40;94.70
31799;DHT22;18374;51.136;3.502;2023-07-16T15:54:27;22.50;94.30
31799;DHT22;18374;51.136;3.502;2023-07-16T15:56:54;22.60;94.60
31799;DHT22;18374;51.136;3.502;2023-07-16T15:59:22;22.80;94.10
31799;DHT22;18374;51.136;3.502;2023-07-16T16:01:49;22.90;94.50